Virtual Futura



 METAR AND TAF INFORMATION
METAR FOR LEXJ
ADDS - METARS form results

(1306 UTC 19 July 2019)
Data provider http://aviationweather.gov/metar/data/
 
METAR text: LEXJ 191300Z 04009KT 350V100 CAVOK 24/19 Q1014
Conditions at: LEXJ (SANTANDER/PARAYA, ES) observed 1300 UTC 19 July 2019
Temperature: 24.0°C (75°F)
Dewpoint: 19.0°C (66°F) [RH = 74%]
Pressure (altimeter): 29.94 inches Hg (1014.0 mb)
Winds: from the NE (40 degrees) at 10 MPH (9 knots; 4.6 m/s)
Visibility: 6 or more miles (10+ km)
Ceiling: ceiling and visibility are OK
Clouds: unknown
Weather: no significant weather observed at this time

METAR text: LEXJ 191230Z 04009KT 330V100 CAVOK 24/18 Q1014
Conditions at: LEXJ (SANTANDER/PARAYA, ES) observed 1230 UTC 19 July 2019
Temperature: 24.0°C (75°F)
Dewpoint: 18.0°C (64°F) [RH = 69%]
Pressure (altimeter): 29.94 inches Hg (1014.0 mb)
Winds: from the NE (40 degrees) at 10 MPH (9 knots; 4.6 m/s)
Visibility: 6 or more miles (10+ km)
Ceiling: ceiling and visibility are OK
Clouds: unknown
Weather: no significant weather observed at this time

Forecast for: LEXJ (SANTANDER/PARAYA, ES)
Text: TAF LEXJ 190800Z 1909/2009 VRB04KT CAVOK TX25/1912Z TN17/2005Z
Forecast period: 0900 UTC 19 July 2019 to 0900 UTC 20 July 2019
Forecast type: FROM: standard forecast or significant change
Winds: variable direction winds at 5 MPH (4 knots; 2.1 m/s)
Visibility: 6 or more miles 10+ km)
Ceiling: unknown
Clouds: missing
Weather: no significant weather forecast for this period
Text: BECMG 1909/1912 04010KT
Forecast period: 0900 to 1800 UTC 19 July 2019
Forecast type: BECOMING: Conditions expected to become as follows by 1200 UTC 19 July 2019
Winds: from the NE (40 degrees) at 12 MPH (10 knots; 5.1 m/s)
Visibility: 6 or more miles 10+ km)
Ceiling: unknown
Clouds: missing
Weather: no significant weather forecast for this period
Text: BECMG 1918/1919 VRB05KT
Forecast period: 1800 UTC 19 July 2019 to 0900 UTC 20 July 2019
Forecast type: BECOMING: Conditions expected to become as follows by 1900 UTC 19 July 2019
Winds: variable direction winds at 6 MPH (5 knots; 2.6 m/s)
Visibility: 6 or more miles 10+ km)
Ceiling: unknown
Clouds: missing
Weather: no significant weather forecast for this period

 AIRPORT MAP

 RUNWAY INFORMATION
Runway 11 Runway length 7612 ft Runway width 148 ft
Runway elevation 11 ft Runway displaced threshold 0 ft Runway heading 110
Runway 29 Runway length 7612 ft Runway width 148 ft
Runway elevation 12 ft Runway displaced threshold 0 ft Runway heading 290

 AIRPORT FREQUENCIES
Type APP Name APP Frequency 118.375 MHZ
Type GND Name GND Frequency 121.7 MHZ
Type TWR Name TWR Frequency 118.1 MHZ

 AIRPORT NEAR NAVIGATION AIDS
Type NDB Name Santander Frequency 416 KHZ
Type VOR-DME Name Santander Frequency 115300 KHZ

Poltica de Cookies

Esta web utiliza cookies para obtener datos estadsticos de la navegacin de sus usuarios. Si continas navegando consideramos que aceptas su uso. Ms informacin X Cerrar